Time;durP1;ratioP1;P1;durP2;ratioP2;P2;SDS_P1;SDS_P2;PMS_P1;PMS_P2;Temp;Humidity;BMP_temperature;BMP_pressure;BME280_temperature;BME280_humidity;BME280_pressure;Samples;Min_cycle;Max_cycle;Signal;HPM_P1;HPM_P2
2021/08/10 00:01:37;;;;;;;11.80;4.93;;;;;;;13.29;98.65;101110.31;5626985;24;20050;-83
2021/08/10 00:04:03;;;;;;;7.40;4.78;;;;;;;13.26;98.13;101099.91;4864858;29;20038;-83
2021/08/10 00:06:29;;;;;;;13.18;5.28;;;;;;;13.35;98.26;101120.28;4867081;29;20014;-82
2021/08/10 00:08:55;;;;;;;19.00;5.45;;;;;;;13.04;98.23;101078.47;4883649;29;20025;-82
2021/08/10 00:11:20;;;;;;;11.38;5.03;;;;;;;13.95;98.74;101210.25;4884020;29;20030;-83
2021/08/10 00:13:46;;;;;;;11.65;6.53;;;;;;;13.48;98.56;101131.09;4869357;29;20065;-81
2021/08/10 00:16:12;;;;;;;17.02;7.60;;;;;;;13.67;98.85;101169.09;4868505;29;20060;-82
2021/08/10 00:18:37;;;;;;;11.50;6.30;;;;;;;13.25;99.19;101084.75;4883548;29;20030;-83
2021/08/10 00:21:03;;;;;;;8.85;5.45;;;;;;;13.51;99.03;101125.25;4887389;29;20018;-81
2021/08/10 00:23:35;;;;;;;11.00;6.00;;;;;;;13.46;99.13;101119.63;4882977;29;20085;-83
2021/08/10 00:26:01;;;;;;;13.45;6.47;;;;;;;13.37;98.98;101110.06;4887776;29;20040;-83
2021/08/10 00:28:27;;;;;;;11.80;6.18;;;;;;;13.58;99.53;101139.59;4862707;29;20046;-83
2021/08/10 00:30:52;;;;;;;15.93;7.13;;;;;;;13.84;99.41;101175.72;4872505;29;20021;-82
2021/08/10 00:33:18;;;;;;;10.98;6.82;;;;;;;13.35;99.91;101090.56;4886265;29;20021;-82
2021/08/10 00:35:43;;;;;;;11.60;6.40;;;;;;;13.26;99.77;101081.81;4875384;29;20022;-82
2021/08/10 00:38:10;;;;;;;14.73;6.32;;;;;;;14.16;99.99;101222.69;4868003;29;20093;-83
2021/08/10 00:40:39;;;;;;;11.30;6.30;;;;;;;13.24;100.00;101083.03;4867851;29;20014;-84
2021/08/10 00:43:32;;;;;;;15.32;6.20;;;;;;;14.13;99.97;101211.44;4870068;29;20034;-83
2021/08/10 00:45:59;;;;;;;13.55;6.22;;;;;;;13.41;100.00;101100.53;4886413;29;20025;-83
2021/08/10 00:48:25;;;;;;;11.18;5.60;;;;;;;13.82;100.00;101169.69;4875822;29;20078;-82
2021/08/10 00:50:51;;;;;;;13.02;5.20;;;;;;;13.29;100.00;101086.81;4869109;29;20014;-82
2021/08/10 00:53:17;;;;;;;10.60;5.53;;;;;;;14.12;100.00;101215.22;4863939;29;20025;-82
2021/08/10 00:55:43;;;;;;;14.35;5.57;;;;;;;14.10;100.00;101215.41;4850092;29;20050;-82
2021/08/10 00:58:10;;;;;;;11.88;5.57;;;;;;;13.50;100.00;101118.16;4849818;29;20102;-82
2021/08/10 01:00:36;;;;;;;12.73;5.70;;;;;;;13.27;100.00;101085.34;4857563;29;20030;-82
2021/08/10 01:03:03;;;;;;;12.23;5.45;;;;;;;13.17;100.00;101086.56;4849325;29;20065;-83
2021/08/10 01:05:30;;;;;;;12.45;5.38;;;;;;;13.52;100.00;101140.44;4849504;29;20007;-82
2021/08/10 01:08:10;;;;;;;13.85;5.53;;;;;;;13.17;100.00;101091.16;4849139;29;20082;-83
2021/08/10 01:10:54;;;;;;;13.20;5.30;;;;;;;13.17;100.00;101080.34;4849289;29;20010;-82
2021/08/10 01:13:38;;;;;;;9.70;5.10;;;;;;;13.71;100.00;101160.38;4852952;29;20034;-82
2021/08/10 01:16:27;;;;;;;12.07;5.53;;;;;;;14.04;100.00;101219.00;4867025;29;20050;-83
2021/08/10 01:19:12;;;;;;;12.35;5.70;;;;;;;13.49;100.00;101148.97;4849493;29;20128;-83
2021/08/10 01:21:39;;;;;;;;;;;;;;;13.90;100.00;101220.03;4845659;29;20026;-82
2021/08/10 01:24:26;;;;;;;13.40;4.80;;;;;;;13.33;100.00;101134.00;4842555;29;19916;-83
2021/08/10 01:27:10;;;;;;;10.13;5.15;;;;;;;13.89;100.00;101216.50;4839897;29;20484;-82
2021/08/10 01:29:45;;;;;;;13.25;5.72;;;;;;;13.03;100.00;101084.94;4864184;29;20022;-82
2021/08/10 01:32:11;;;;;;;13.25;5.70;;;;;;;13.03;100.00;101082.22;4880285;29;20037;-82
2021/08/10 01:34:42;;;;;;;12.75;5.80;;;;;;;12.96;100.00;101080.56;4886471;29;20094;-82
2021/08/10 01:37:15;;;;;;;11.95;5.10;;;;;;;13.44;100.00;101167.66;4871450;29;20028;-82
2021/08/10 01:39:43;;;;;;;13.07;6.43;;;;;;;13.81;100.00;101216.75;4866670;29;20021;-82
2021/08/10 01:42:12;;;;;;;12.95;5.90;;;;;;;13.17;100.00;101115.47;4867034;29;20044;-83
2021/08/10 01:44:39;;;;;;;10.68;5.50;;;;;;;12.93;100.00;101082.66;4866903;29;20053;-83
2021/08/10 01:47:08;;;;;;;12.23;6.05;;;;;;;13.04;100.00;101100.09;4870124;29;20025;-83
2021/08/10 01:49:37;;;;;;;13.25;6.10;;;;;;;12.82;100.00;101074.34;4886297;29;20068;-82
2021/08/10 01:52:04;;;;;;;12.80;5.90;;;;;;;12.93;100.00;101100.72;4883238;29;20032;-82
2021/08/10 01:54:30;;;;;;;13.70;6.35;;;;;;;12.99;100.00;101108.00;4885681;29;20034;-82
2021/08/10 01:56:56;;;;;;;16.05;6.43;;;;;;;13.09;100.00;101121.94;4883155;29;20049;-82
2021/08/10 01:59:24;;;;;;;15.38;6.65;;;;;;;12.80;100.00;101071.84;4850141;29;20010;-83
2021/08/10 02:01:51;;;;;;;14.85;5.80;;;;;;;13.47;100.00;101183.47;4847781;29;20479;-81
2021/08/10 02:04:19;;;;;;;14.93;6.10;;;;;;;13.59;100.00;101206.13;4849905;29;20039;-83
2021/08/10 02:06:48;;;;;;;12.70;6.07;;;;;;;13.54;100.00;101208.66;4862488;29;20026;-82
2021/08/10 02:09:17;;;;;;;15.98;5.97;;;;;;;13.01;100.00;101129.41;4884413;29;20018;-82
2021/08/10 02:11:44;;;;;;;12.80;7.15;;;;;;;12.74;100.00;101085.34;4880866;29;20371;-83
2021/08/10 02:14:11;;;;;;;13.40;6.97;;;;;;;12.63;100.00;101071.41;4884516;29;20009;-82
2021/08/10 02:16:38;;;;;;;14.50;6.57;;;;;;;12.53;100.00;101057.50;4883092;29;20106;-82
2021/08/10 02:19:03;;;;;;;13.20;6.20;;;;;;;12.77;100.00;101096.56;4884443;29;20037;-83
2021/08/10 02:21:32;;;;;;;15.25;6.18;;;;;;;13.40;100.00;101206.97;4884755;29;20026;-82
2021/08/10 02:24:07;;;;;;;14.93;6.65;;;;;;;12.49;100.00;101080.53;4866375;29;20109;-82
2021/08/10 02:26:43;;;;;;;17.08;7.05;;;;;;;12.42;100.00;101068.91;4883678;29;20061;-82
2021/08/10 02:29:10;;;;;;;14.57;7.05;;;;;;;12.69;100.00;101118.38;4883873;29;20026;-81
2021/08/10 02:31:37;;;;;;;13.85;7.07;;;;;;;13.00;100.00;101168.25;4850677;29;20039;-82
2021/08/10 02:34:02;;;;;;;16.25;7.13;;;;;;;12.55;100.00;101104.03;4847394;29;20030;-82
2021/08/10 02:36:30;;;;;;;13.35;6.63;;;;;;;12.82;100.00;101141.88;4860211;29;20059;-82
2021/08/10 02:39:00;;;;;;;14.40;7.35;;;;;;;12.45;100.00;101095.50;4832565;29;20014;-82
2021/08/10 02:41:26;;;;;;;15.43;7.20;;;;;;;12.27;100.00;101070.94;4849956;29;20054;-82
2021/08/10 02:43:52;;;;;;;16.17;6.85;;;;;;;12.19;100.00;101069.25;4867318;29;20025;-82
2021/08/10 02:46:18;;;;;;;16.17;7.47;;;;;;;12.47;100.00;101112.28;4883118;29;20026;-82
2021/08/10 02:48:44;;;;;;;14.63;7.30;;;;;;;12.45;100.00;101111.69;4867468;29;20074;-82
2021/08/10 02:51:10;;;;;;;17.98;7.70;;;;;;;12.50;100.00;101122.69;4884706;29;20029;-83
2021/08/10 02:53:36;;;;;;;13.75;7.75;;;;;;;12.72;100.00;101160.34;4880102;29;20042;-81
2021/08/10 02:56:14;;;;;;;12.88;7.38;;;;;;;12.46;100.00;101124.97;4883705;29;20026;-82
2021/08/10 02:59:03;;;;;;;25.75;8.20;;;;;;;13.04;100.00;101202.75;4871601;29;20457;-82
2021/08/10 03:01:34;;;;;;;18.95;7.72;;;;;;;12.73;100.00;101152.00;4865700;29;20041;-82
2021/08/10 03:04:01;;;;;;;15.60;7.20;;;;;;;12.73;100.00;101153.88;4863729;29;20025;-82
2021/08/10 03:06:29;;;;;;;16.40;7.95;;;;;;;12.30;100.00;101101.03;4875105;29;20041;-82
2021/08/10 03:08:59;;;;;;;19.80;7.93;;;;;;;12.15;100.00;101068.84;4883623;29;20030;-81
2021/08/10 03:11:28;;;;;;;15.25;7.80;;;;;;;12.45;100.00;101117.91;4864694;29;20014;-82
2021/08/10 03:13:55;;;;;;;16.42;7.78;;;;;;;12.27;100.00;101100.63;4847819;29;20086;-81
2021/08/10 03:16:24;;;;;;;14.25;7.82;;;;;;;12.90;100.00;101201.06;4848778;29;20011;-82
2021/08/10 03:18:52;;;;;;;13.93;7.45;;;;;;;12.26;100.00;101099.78;4860182;29;20028;-81
2021/08/10 03:21:23;;;;;;;16.98;7.78;;;;;;;12.54;100.00;101136.59;4865059;29;20105;-81
2021/08/10 03:23:51;;;;;;;17.40;7.97;;;;;;;12.40;100.00;101108.75;4863994;29;20014;-81
2021/08/10 03:26:20;;;;;;;18.35;8.07;;;;;;;12.37;100.00;101098.34;4864812;29;20022;-82
2021/08/10 03:28:47;;;;;;;14.05;8.27;;;;;;;12.07;100.00;101050.13;4865594;29;20038;-81
2021/08/10 03:31:15;;;;;;;15.63;8.15;;;;;;;12.78;100.00;101167.59;4878127;29;20019;-82
2021/08/10 03:33:43;;;;;;;17.88;8.40;;;;;;;12.97;100.00;101190.28;4859426;29;20014;-82
2021/08/10 03:36:10;;;;;;;14.95;8.05;;;;;;;12.92;100.00;101189.03;4860576;29;20070;-82
2021/08/10 03:38:36;;;;;;;17.98;8.05;;;;;;;12.22;100.00;101083.19;4846924;29;20010;-82
2021/08/10 03:41:04;;;;;;;15.27;8.07;;;;;;;12.43;100.00;101113.75;4866078;29;20081;-82
2021/08/10 03:43:30;;;;;;;17.05;8.82;;;;;;;12.06;100.00;101053.88;4866448;29;20067;-82
2021/08/10 03:45:57;;;;;;;15.90;8.75;;;;;;;13.00;100.00;101197.97;4868684;29;20094;-82
2021/08/10 03:48:23;;;;;;;16.92;9.27;;;;;;;12.19;100.00;101062.00;4860323;29;20045;-81
2021/08/10 03:50:52;;;;;;;17.30;9.80;;;;;;;12.52;100.00;101112.53;4875975;29;20051;-81
2021/08/10 03:53:24;;;;;;;17.23;9.30;;;;;;;12.74;100.00;101134.78;4866616;29;20030;-82
2021/08/10 03:55:50;;;;;;;16.63;9.45;;;;;;;12.41;100.00;101070.75;4868975;29;20062;-81
2021/08/10 03:58:20;;;;;;;17.58;10.05;;;;;;;12.68;100.00;101098.63;4874526;29;20037;-81
2021/08/10 04:00:46;;;;;;;17.85;9.85;;;;;;;12.60;100.00;101063.72;4871877;29;20038;-82
2021/08/10 04:03:13;;;;;;;18.20;9.13;;;;;;;13.24;100.00;101147.91;4881538;29;20052;-82
2021/08/10 04:05:43;;;;;;;20.13;9.55;;;;;;;13.02;100.00;101077.88;4867056;29;20053;-82
2021/08/10 04:08:11;;;;;;;17.95;9.40;;;;;;;12.93;100.00;101060.22;4884754;29;20074;-81
2021/08/10 04:10:40;;;;;;;20.20;10.10;;;;;;;13.81;100.00;101181.56;4885237;29;20090;-82
2021/08/10 04:13:07;;;;;;;19.23;10.43;;;;;;;13.57;100.00;101132.50;4877564;29;20033;-80
2021/08/10 04:15:33;;;;;;;22.77;9.52;;;;;;;14.20;100.00;101160.84;4860600;29;20516;-80
2021/08/10 04:18:00;;;;;;;16.08;8.60;;;;;;;14.75;98.96;101191.84;4866342;29;20038;-82
2021/08/10 04:20:25;;;;;;;18.73;9.32;;;;;;;14.05;99.59;101097.00;4895119;23;20059;-82
2021/08/10 04:25:22;;;;;;;16.30;8.40;;;;;;;15.11;98.69;101190.38;4829983;29;20055;-81
2021/08/10 04:27:48;;;;;;;21.55;8.45;;;;;;;15.16;96.17;101113.81;4845436;29;20616;-82
2021/08/10 04:30:13;;;;;;;15.27;8.02;;;;;;;15.60;94.55;101120.91;4846093;29;20038;-82
2021/08/10 04:32:39;;;;;;;24.02;8.80;;;;;;;15.79;93.42;101108.19;4832115;29;20015;-82
2021/08/10 04:35:05;;;;;;;11.02;6.93;;;;;;;16.19;92.41;101119.41;4852786;29;20046;-83
2021/08/10 04:37:31;;;;;;;17.90;7.10;;;;;;;16.12;93.44;101139.53;4847778;29;20015;-82
2021/08/10 04:39:56;;;;;;;13.75;7.22;;;;;;;16.09;94.18;101148.13;4845499;29;20037;-82
2021/08/10 04:42:22;;;;;;;10.82;6.80;;;;;;;15.98;95.00;101164.13;4841382;29;20090;-81
2021/08/10 04:44:48;;;;;;;14.15;6.15;;;;;;;15.47;95.96;101107.47;4847100;29;20022;-81
2021/08/10 04:47:13;;;;;;;12.90;6.57;;;;;;;15.18;96.53;101087.31;4857757;29;20036;-82
2021/08/10 04:49:39;;;;;;;12.82;6.30;;;;;;;15.17;96.90;101083.78;4832098;29;20031;-82
2021/08/10 04:52:05;;;;;;;13.40;6.63;;;;;;;15.34;96.97;101113.84;4831187;29;20019;-82
2021/08/10 04:54:33;;;;;;;13.63;6.20;;;;;;;15.32;96.90;101110.53;4831712;29;20019;-83
2021/08/10 04:56:59;;;;;;;11.25;5.97;;;;;;;15.55;97.12;101138.91;4861309;29;20029;-82
2021/08/10 04:59:25;;;;;;;17.48;6.35;;;;;;;15.74;97.39;101167.75;4863473;29;20058;-82
2021/08/10 05:01:51;;;;;;;15.00;6.40;;;;;;;15.62;97.44;101148.63;4835051;29;20035;-81
2021/08/10 05:04:18;;;;;;;16.90;6.50;;;;;;;15.24;97.23;101086.44;4829287;29;20015;-83
2021/08/10 05:06:44;;;;;;;16.17;6.10;;;;;;;16.07;97.39;101207.28;4850011;29;20062;-82
2021/08/10 05:09:10;;;;;;;13.80;6.10;;;;;;;15.73;96.98;101158.78;4838492;29;20022;-82
2021/08/10 05:11:35;;;;;;;13.23;5.78;;;;;;;15.85;96.98;101163.44;4827455;29;20037;-80
2021/08/10 05:14:02;;;;;;;18.27;5.93;;;;;;;16.18;95.74;101165.78;4856011;29;20048;-82
2021/08/10 05:16:27;;;;;;;16.08;6.05;;;;;;;15.86;95.90;101121.69;4843049;29;20094;-82
2021/08/10 05:18:53;;;;;;;18.63;6.25;;;;;;;16.37;95.32;101185.63;4828785;29;20033;-81
2021/08/10 05:21:19;;;;;;;13.98;5.13;;;;;;;17.04;93.56;101210.00;4842960;29;20051;-81
2021/08/10 05:23:45;;;;;;;11.30;4.88;;;;;;;16.63;94.10;101166.25;4827666;29;20065;-82
2021/08/10 05:26:11;;;;;;;10.75;4.75;;;;;;;16.95;94.50;101214.13;4826653;29;20038;-81
2021/08/10 05:28:37;;;;;;;12.80;5.20;;;;;;;16.61;94.65;101178.41;4860351;29;20030;-82
2021/08/10 05:31:02;;;;;;;16.52;4.65;;;;;;;16.23;94.44;101108.09;4856266;29;20030;-81
2021/08/10 05:33:28;;;;;;;14.52;4.75;;;;;;;16.23;94.49;101100.78;4827692;29;20034;-81
2021/08/10 05:35:55;;;;;;;16.90;4.65;;;;;;;16.43;94.35;101130.38;4826798;29;20031;-81
2021/08/10 05:38:20;;;;;;;10.20;4.45;;;;;;;16.36;94.35;101119.59;4842711;29;20026;-80
2021/08/10 05:40:46;;;;;;;12.45;3.97;;;;;;;16.37;94.45;101129.41;4832983;29;20063;-83
2021/08/10 05:43:11;;;;;;;13.65;4.05;;;;;;;16.64;94.19;101178.75;4826764;29;20046;-79
2021/08/10 05:45:38;;;;;;;12.73;4.05;;;;;;;16.25;94.26;101130.41;4831217;29;20015;-81
2021/08/10 05:48:04;;;;;;;8.98;3.60;;;;;;;16.11;94.20;101121.59;4846263;29;20022;-82
2021/08/10 05:50:30;;;;;;;11.05;3.83;;;;;;;16.02;94.12;101120.25;4836743;29;20050;-80
2021/08/10 05:52:56;;;;;;;11.27;3.50;;;;;;;15.83;94.56;101119.44;4834693;29;20419;-83
2021/08/10 05:55:23;;;;;;;10.93;3.95;;;;;;;15.54;94.37;101112.84;4826559;29;20053;-80
2021/08/10 05:57:48;;;;;;;10.10;3.70;;;;;;;15.93;94.67;101187.59;4821307;29;20031;-81
2021/08/10 06:00:14;;;;;;;7.50;3.65;;;;;;;15.52;94.99;101135.56;4829915;29;20106;-80
2021/08/10 06:02:40;;;;;;;12.55;4.13;;;;;;;16.03;95.56;101225.06;4830149;29;20061;-82
2021/08/10 06:05:06;;;;;;;8.50;3.70;;;;;;;15.48;95.51;101139.78;4825211;29;20020;-81
2021/08/10 06:07:32;;;;;;;9.45;3.55;;;;;;;14.94;95.76;101073.56;4828503;29;20035;-81
2021/08/10 06:09:57;;;;;;;8.38;3.55;;;;;;;15.22;95.48;101112.91;4843861;29;20022;-81
2021/08/10 06:12:24;;;;;;;7.68;3.60;;;;;;;14.91;95.66;101084.84;4844446;29;20039;-82
2021/08/10 06:14:52;;;;;;;7.07;3.83;;;;;;;15.76;96.05;101213.63;4846680;29;20019;-81
2021/08/10 06:17:18;;;;;;;6.82;3.28;;;;;;;15.37;95.86;101158.69;4844362;29;20369;-81
2021/08/10 06:19:44;;;;;;;9.68;3.53;;;;;;;14.87;95.99;101102.59;4851800;29;20050;-83
2021/08/10 06:22:09;;;;;;;7.45;3.45;;;;;;;15.17;96.22;101150.72;4828304;29;20086;-80
2021/08/10 06:24:36;;;;;;;8.98;3.80;;;;;;;14.92;96.39;101113.56;4830083;29;20034;-77
2021/08/10 06:27:01;;;;;;;7.72;3.53;;;;;;;15.12;96.68;101145.13;5277455;23;20094;-80
2021/08/10 06:29:27;;;;;;;10.32;3.50;;;;;;;15.27;96.96;101165.44;4872068;23;20054;-79
2021/08/10 06:31:52;;;;;;;10.02;4.20;;;;;;;15.57;96.66;101194.59;4851217;23;20050;-79
2021/08/10 06:34:18;;;;;;;9.85;4.00;;;;;;;15.83;96.59;101234.25;4819347;29;20043;-77
2021/08/10 06:36:47;;;;;;;9.75;3.80;;;;;;;15.13;96.60;101108.81;4804643;29;20037;-80
2021/08/10 06:39:12;;;;;;;8.98;4.18;;;;;;;15.97;96.78;101226.78;4824204;29;20071;-81
2021/08/10 06:41:38;;;;;;;8.38;4.25;;;;;;;15.77;96.91;101183.56;4822032;29;20058;-80
2021/08/10 06:44:03;;;;;;;11.00;4.28;;;;;;;16.25;96.69;101226.25;4818519;29;20035;-78
2021/08/10 06:46:30;;;;;;;10.38;4.50;;;;;;;16.35;96.20;101220.31;4828087;29;20052;-80
2021/08/10 06:48:55;;;;;;;9.73;4.50;;;;;;;16.51;96.30;101219.69;4835207;29;20030;-80
2021/08/10 06:51:21;;;;;;;7.82;3.97;;;;;;;16.67;96.14;101218.22;4839488;29;20135;-81
2021/08/10 06:53:46;;;;;;;8.48;4.80;;;;;;;16.64;95.67;101184.19;4825439;29;20023;-81
2021/08/10 06:56:12;;;;;;;11.38;4.60;;;;;;;17.00;95.58;101217.81;4827354;29;20038;-82
2021/08/10 06:58:37;;;;;;;10.02;4.25;;;;;;;17.19;95.33;101217.75;4810955;29;20038;-81
2021/08/10 07:01:04;;;;;;;11.18;4.40;;;;;;;17.29;95.24;101205.22;4826601;29;20150;-80
2021/08/10 07:03:32;;;;;;;9.32;4.40;;;;;;;17.36;95.32;101203.22;4811076;29;20039;-81
2021/08/10 07:05:57;;;;;;;7.63;4.50;;;;;;;17.53;95.00;101218.88;4854448;29;20033;-81
2021/08/10 07:08:24;;;;;;;8.23;4.20;;;;;;;17.63;94.57;101202.78;4829543;29;20051;-80
2021/08/10 07:10:49;;;;;;;9.73;3.83;;;;;;;17.78;93.86;101211.34;4840054;29;20057;-81
2021/08/10 07:13:16;;;;;;;8.40;4.13;;;;;;;17.89;93.18;101195.25;4839608;29;20468;-81
2021/08/10 07:15:42;;;;;;;9.60;4.18;;;;;;;18.30;92.02;101214.09;4825567;29;20019;-80
2021/08/10 07:18:07;;;;;;;13.10;4.60;;;;;;;18.43;91.35;101214.91;4825470;29;20042;-80
2021/08/10 07:20:33;;;;;;;8.63;4.65;;;;;;;18.54;90.47;101200.41;4826128;29;20038;-80
2021/08/10 07:22:58;;;;;;;10.07;4.70;;;;;;;18.78;89.74;101204.75;4837981;29;20027;-80
2021/08/10 07:25:24;;;;;;;12.70;5.00;;;;;;;18.73;89.09;101168.38;4803744;29;20043;-78
2021/08/10 07:27:50;;;;;;;12.48;4.70;;;;;;;18.94;88.63;101194.09;4835207;29;20038;-81
2021/08/10 07:30:15;;;;;;;10.10;4.45;;;;;;;19.06;88.42;101207.69;4845110;29;20049;-81
2021/08/10 07:32:41;;;;;;;10.40;4.30;;;;;;;19.10;87.71;101198.75;4843490;29;20042;-80
2021/08/10 07:35:08;;;;;;;8.75;4.20;;;;;;;19.10;87.57;101204.19;4856828;29;20018;-80
2021/08/10 07:37:38;;;;;;;8.55;3.60;;;;;;;19.12;87.55;101196.59;4842578;29;20031;-80
2021/08/10 07:40:04;;;;;;;6.47;3.10;;;;;;;19.07;86.74;101201.16;4841547;29;20022;-79
2021/08/10 07:42:30;;;;;;;7.13;3.28;;;;;;;19.00;86.99;101204.03;4812030;29;20087;-82
2021/08/10 07:44:55;;;;;;;8.60;3.10;;;;;;;18.93;87.01;101204.19;4844659;29;20029;-82
2021/08/10 07:47:20;;;;;;;5.72;2.83;;;;;;;18.84;87.19;101200.22;4831543;29;20022;-82
2021/08/10 07:52:21;;;;;;;6.00;2.83;;;;;;;17.79;87.13;101073.34;5582995;24;20094;-83
2021/08/10 07:54:47;;;;;;;8.95;2.70;;;;;;;17.51;87.04;101034.06;4912381;24;20113;-82
2021/08/10 07:57:13;;;;;;;10.85;3.05;;;;;;;18.45;87.46;101197.25;4867877;23;20031;-83
2021/08/10 07:59:40;;;;;;;5.38;2.92;;;;;;;17.48;87.79;101060.94;4826309;29;20053;-82
2021/08/10 08:17:37;;;;;;;7.53;3.28;;;;;;;17.59;88.40;101077.25;5747925;23;20089;-84
2021/08/10 08:20:07;;;;;;;9.38;3.40;;;;;;;17.46;88.12;101036.69;4861545;29;20053;-83
2021/08/10 08:22:33;;;;;;;8.02;3.10;;;;;;;17.52;87.77;101040.38;4866080;29;20063;-84
2021/08/10 08:24:59;;;;;;;8.32;3.58;;;;;;;17.88;87.64;101071.91;4864960;29;20038;-83
2021/08/10 08:27:25;;;;;;;10.18;3.88;;;;;;;18.09;87.20;101084.03;4865262;29;20022;-83
2021/08/10 08:29:51;;;;;;;7.93;3.22;;;;;;;18.60;87.10;101152.28;4874932;29;20038;-84
2021/08/10 08:32:16;;;;;;;7.03;3.65;;;;;;;18.18;86.82;101089.91;4865597;29;20030;-83
2021/08/10 08:34:42;;;;;;;12.07;3.45;;;;;;;18.25;86.34;101099.59;4868652;29;20081;-83
2021/08/10 08:37:08;;;;;;;5.88;3.13;;;;;;;18.32;86.42;101096.72;4879760;29;20044;-83
2021/08/10 08:39:37;;;;;;;7.22;3.15;;;;;;;18.08;86.51;101068.75;4886297;29;20089;-83
2021/08/10 08:42:03;;;;;;;7.20;2.83;;;;;;;17.95;86.45;101045.38;4870508;29;20010;-83
2021/08/10 08:44:34;;;;;;;8.60;3.05;;;;;;;17.86;86.12;101024.22;4868221;29;20026;-83
2021/08/10 08:47:04;;;;;;;6.30;2.72;;;;;;;18.18;85.78;101052.63;5019574;23;20031;-82
2021/08/10 08:49:32;;;;;;;7.80;2.95;;;;;;;18.39;84.95;101083.78;4831714;29;20031;-83
2021/08/10 08:52:05;;;;;;;5.57;2.90;;;;;;;18.68;84.23;101138.28;4831161;29;20035;-84
2021/08/10 08:54:34;;;;;;;5.50;2.20;;;;;;;17.92;83.75;101028.69;4831341;29;20019;-83
2021/08/10 09:10:09;;;;;;;5.07;2.20;;;;;;;18.40;80.89;101077.25;5184877;23;20054;-82
2021/08/10 09:13:01;;;;;;;6.20;2.35;;;;;;;18.21;80.95;101046.69;4867928;29;20017;-83
2021/08/10 09:15:40;;;;;;;8.77;2.60;;;;;;;18.10;80.99;101042.09;4866669;29;20053;-84
2021/08/10 09:23:16;;;;;;;5.63;2.53;;;;;;;17.97;80.99;101028.78;5048029;23;20049;-84
2021/08/10 09:25:53;;;;;;;4.45;2.30;;;;;;;18.39;81.12;101089.22;4867410;29;20053;-83
2021/08/10 09:28:19;;;;;;;4.95;2.30;;;;;;;18.98;81.18;101195.28;4864662;29;20034;-83
2021/08/10 09:30:45;;;;;;;6.05;2.42;;;;;;;18.01;81.50;101033.50;4864328;29;20074;-83
2021/08/10 09:33:11;;;;;;;5.40;2.40;;;;;;;17.95;81.29;101020.03;4867243;29;20024;-83
2021/08/10 09:35:38;;;;;;;6.68;2.45;;;;;;;18.00;81.61;101022.84;4858353;29;20047;-83
2021/08/10 09:38:21;;;;;;;6.45;2.63;;;;;;;18.31;81.25;101065.94;4857711;29;20010;-83
2021/08/10 09:40:52;;;;;;;5.70;2.97;;;;;;;18.19;81.42;101035.19;4867260;29;20014;-83
2021/08/10 09:43:35;;;;;;;6.82;2.70;;;;;;;18.18;81.52;101021.81;4860704;29;20081;-83
2021/08/10 09:46:12;;;;;;;7.65;2.60;;;;;;;19.27;81.52;101166.03;4866440;29;20033;-82
2021/08/10 09:48:41;;;;;;;4.85;2.58;;;;;;;18.56;81.07;101056.56;4859089;29;20022;-84
2021/08/10 09:53:43;;;;;;;10.13;3.13;;;;;;;18.14;81.11;100982.50;5121708;23;20066;-84
2021/08/10 09:56:09;;;;;;;4.18;2.05;;;;;;;19.24;81.40;101177.47;4832832;29;20043;-84
2021/08/10 09:58:55;;;;;;;6.57;2.47;;;;;;;19.17;81.41;101174.03;4835814;29;20058;-84
2021/08/10 10:01:34;;;;;;;7.65;2.53;;;;;;;19.23;81.13;101170.31;4841577;29;20082;-83
2021/08/10 10:04:11;;;;;;;5.43;2.20;;;;;;;18.95;80.81;101103.88;5018879;24;20034;-83
2021/08/10 10:06:38;;;;;;;7.35;2.45;;;;;;;18.75;80.70;101049.00;4828579;29;20027;-84
2021/08/10 10:09:04;;;;;;;7.32;2.40;;;;;;;19.16;80.42;101075.00;4826058;29;20060;-82
2021/08/10 10:11:33;;;;;;;8.52;2.08;;;;;;;19.38;79.43;101068.78;4827090;29;20067;-83
2021/08/10 10:14:01;;;;;;;9.48;2.20;;;;;;;19.16;78.77;101000.53;4824817;29;20019;-83
2021/08/10 10:16:30;;;;;;;7.97;2.25;;;;;;;19.46;78.12;101002.84;4841929;29;20064;-84
2021/08/10 10:34:25;;;;;;;3.15;1.40;;;;;;;20.37;69.33;101005.81;5082949;24;20057;-83
2021/08/10 10:36:54;;;;;;;2.47;1.27;;;;;;;20.85;68.84;101066.09;4865755;29;20029;-83
2021/08/10 10:41:58;;;;;;;2.72;1.60;;;;;;;19.87;69.18;101012.41;4967629;23;20062;-82
2021/08/10 10:49:40;;;;;;;2.58;1.50;;;;;;;19.73;71.59;101043.06;4925769;24;20039;-82
2021/08/10 11:02:27;;;;;;;5.13;2.13;;;;;;;20.55;72.97;101168.63;5350234;24;20058;-79
2021/08/10 11:05:17;;;;;;;5.57;2.45;;;;;;;20.57;73.51;101168.41;4822246;29;20033;-79
2021/08/10 11:07:50;;;;;;;7.00;2.60;;;;;;;20.46;73.99;101172.06;4825899;29;20026;-81
2021/08/10 11:10:37;;;;;;;6.60;2.40;;;;;;;20.26;74.72;101165.25;4822878;29;20069;-79
2021/08/10 11:13:25;;;;;;;10.35;3.03;;;;;;;20.12;75.83;101161.28;4840246;29;20026;-79
2021/08/10 11:15:50;;;;;;;10.68;3.03;;;;;;;19.93;76.30;101169.78;4822378;29;20467;-79
2021/08/10 11:18:19;;;;;;;6.47;2.40;;;;;;;19.79;76.39;101162.19;4823768;29;20133;-80
2021/08/10 11:20:58;;;;;;;4.43;2.00;;;;;;;19.61;75.86;101166.84;4822988;29;20038;-78
2021/08/10 11:23:26;;;;;;;4.57;2.08;;;;;;;19.22;76.21;101161.31;4823096;29;20023;-79
2021/08/10 11:25:58;;;;;;;6.15;2.17;;;;;;;19.22;76.43;101153.13;4826123;29;20022;-79
2021/08/10 11:28:34;;;;;;;5.13;1.90;;;;;;;19.22;76.85;101158.59;4824578;29;20601;-79
2021/08/10 11:31:05;;;;;;;5.72;2.05;;;;;;;19.19;76.73;101152.81;4831289;29;20058;-80
2021/08/10 11:33:34;;;;;;;5.65;1.80;;;;;;;19.20;77.22;101151.72;4823249;29;20129;-82
2021/08/10 11:36:14;;;;;;;4.50;1.90;;;;;;;19.24;77.35;101147.44;4825823;29;20057;-80
2021/08/10 11:38:52;;;;;;;4.38;1.80;;;;;;;19.22;77.33;101141.41;4839005;29;20026;-79
2021/08/10 11:41:39;;;;;;;4.28;1.80;;;;;;;19.22;77.65;101138.66;4824685;29;20464;-81
2021/08/10 11:44:17;;;;;;;6.25;2.13;;;;;;;19.25;78.08;101130.81;4822247;29;20042;-80
2021/08/10 11:46:43;;;;;;;4.88;1.90;;;;;;;19.06;78.13;101112.22;4825421;29;20037;-79
2021/08/10 11:49:09;;;;;;;4.80;2.00;;;;;;;19.16;78.06;101131.47;4801385;29;20034;-80
2021/08/10 11:51:39;;;;;;;6.03;2.58;;;;;;;19.01;77.93;101127.44;4829901;29;20102;-78
2021/08/10 11:54:17;;;;;;;3.40;2.05;;;;;;;19.02;77.83;101120.91;4824158;29;20193;-79
2021/08/10 11:56:45;;;;;;;6.35;2.33;;;;;;;19.08;78.25;101130.00;4858444;29;20042;-78
2021/08/10 11:59:21;;;;;;;4.82;2.42;;;;;;;19.13;78.95;101121.88;4817233;29;20050;-79
2021/08/10 12:01:47;;;;;;;5.75;2.47;;;;;;;19.18;79.32;101130.16;4825260;29;20134;-80
2021/08/10 12:04:16;;;;;;;5.55;2.65;;;;;;;19.09;80.53;101128.91;4824926;29;20046;-80
2021/08/10 12:06:43;;;;;;;6.70;2.45;;;;;;;19.19;80.31;101122.78;4833004;29;20033;-80
2021/08/10 12:09:16;;;;;;;6.47;2.70;;;;;;;19.18;80.61;101121.97;4847625;29;20068;-79
2021/08/10 12:11:44;;;;;;;6.30;2.50;;;;;;;19.07;81.43;101127.50;4838717;29;20461;-79
2021/08/10 12:14:12;;;;;;;4.47;2.30;;;;;;;19.00;82.13;101128.47;4829709;29;20364;-81
2021/08/10 12:16:38;;;;;;;6.18;2.35;;;;;;;18.80;82.57;101119.13;4827683;29;20022;-81
2021/08/10 12:19:03;;;;;;;7.72;2.95;;;;;;;18.74;83.29;101127.25;4829703;29;20030;-81
2021/08/10 12:21:41;;;;;;;4.70;2.53;;;;;;;18.80;83.34;101121.88;4823742;29;20045;-79
2021/08/10 12:24:07;;;;;;;7.35;2.83;;;;;;;18.80;84.12;101124.59;4825187;29;20113;-81
2021/08/10 12:26:33;;;;;;;6.60;3.08;;;;;;;18.69;84.78;101115.38;4824328;29;20150;-80
2021/08/10 12:29:00;;;;;;;6.90;2.97;;;;;;;18.58;85.08;101117.09;4805006;29;20035;-80
2021/08/10 12:31:27;;;;;;;8.48;3.10;;;;;;;18.52;85.53;101113.44;4828046;29;20034;-80
2021/08/10 12:33:55;;;;;;;9.52;3.30;;;;;;;18.43;86.32;101114.09;4825385;29;20034;-79
2021/08/10 12:36:21;;;;;;;6.47;3.08;;;;;;;18.37;86.58;101113.16;4820732;29;20039;-79
2021/08/10 12:38:50;;;;;;;6.75;3.28;;;;;;;18.34;87.28;101104.63;4806560;29;20071;-79
2021/08/10 12:41:17;;;;;;;8.15;3.17;;;;;;;18.29;87.30;101105.38;4824918;29;20038;-79